createdAt,value
2018-07-12T00:04:00.081Z,96.50
2018-07-12T00:09:03.492Z,97.40
2018-07-12T00:14:06.794Z,97.40
2018-07-12T00:19:10.155Z,97.80
2018-07-12T00:24:13.605Z,98.10
2018-07-12T00:29:16.915Z,98.30
2018-07-12T00:34:20.326Z,99.00
2018-07-12T00:39:23.684Z,99.30
2018-07-12T00:44:27.071Z,99.10
2018-07-12T00:49:30.464Z,99.20
2018-07-12T00:54:34.039Z,99.40
2018-07-12T00:59:37.340Z,99.50
2018-07-12T01:04:40.756Z,99.60
2018-07-12T01:09:44.186Z,99.60
2018-07-12T01:19:50.920Z,99.60
2018-07-12T01:24:54.256Z,99.60
2018-07-12T01:29:57.620Z,99.60
2018-07-12T01:35:01.002Z,99.60
2018-07-12T01:40:04.326Z,99.60
2018-07-12T01:45:07.570Z,99.60
2018-07-12T01:50:10.972Z,99.60
2018-07-12T01:55:14.266Z,99.60
2018-07-12T02:00:17.600Z,99.60
2018-07-12T02:05:21.072Z,99.60
2018-07-12T02:10:24.368Z,99.60
2018-07-12T02:15:27.734Z,99.60
2018-07-12T02:20:31.015Z,99.60
2018-07-12T02:25:34.349Z,99.60
2018-07-12T02:30:37.598Z,99.60
2018-07-12T02:35:41.010Z,99.60
2018-07-12T02:40:44.421Z,99.60
2018-07-12T02:45:47.743Z,99.60
2018-07-12T02:50:51.137Z,99.60
2018-07-12T02:55:54.590Z,99.60
2018-07-12T03:00:57.756Z,99.60
2018-07-12T03:06:02.007Z,99.60
2018-07-12T03:11:05.343Z,99.60
2018-07-12T03:16:08.575Z,99.60
2018-07-12T03:21:12.009Z,99.60
2018-07-12T03:26:15.417Z,99.60
2018-07-12T03:31:18.642Z,99.60
2018-07-12T03:36:21.838Z,99.60
2018-07-12T03:41:25.168Z,99.60
2018-07-12T03:46:29.262Z,99.60
2018-07-12T03:56:36.498Z,99.60
2018-07-12T04:01:39.949Z,99.60
2018-07-12T04:06:43.207Z,99.60
2018-07-12T04:11:46.529Z,99.60
2018-07-12T04:16:49.763Z,99.60
2018-07-12T04:21:53.130Z,99.60
2018-07-12T04:26:56.555Z,99.60
2018-07-12T04:31:59.884Z,99.60
2018-07-12T04:37:03.296Z,99.60
2018-07-12T04:42:06.734Z,99.60
2018-07-12T04:47:10.284Z,99.60
2018-07-12T04:52:13.870Z,99.60
2018-07-12T04:57:17.247Z,99.60
2018-07-12T05:02:20.553Z,99.60
2018-07-12T05:07:23.968Z,98.90
2018-07-12T05:12:28.402Z,98.40
2018-07-12T05:17:31.871Z,97.90
2018-07-12T05:27:38.613Z,96.50
2018-07-12T05:32:42.818Z,95.80
2018-07-12T05:37:47.774Z,95.50
2018-07-12T05:42:52.620Z,95.40
2018-07-12T05:47:57.484Z,96.70
2018-07-12T05:53:02.434Z,98.20
2018-07-12T05:58:07.693Z,96.60
2018-07-12T06:03:12.898Z,96.10
2018-07-12T06:08:18.082Z,95.70
2018-07-12T06:13:22.956Z,94.70
2018-07-12T06:18:27.857Z,94.40
2018-07-12T06:23:32.627Z,93.60
2018-07-12T06:28:37.662Z,93.20
2018-07-12T06:33:42.170Z,92.80
2018-07-12T06:38:47.477Z,93.70
2018-07-12T06:43:52.259Z,92.70
2018-07-12T06:48:57.078Z,91.60
2018-07-12T06:54:01.982Z,91.60
2018-07-12T06:59:06.697Z,91.00
2018-07-12T07:04:11.460Z,89.90
2018-07-12T07:09:16.600Z,88.50
2018-07-12T07:14:21.530Z,88.00
2018-07-12T07:19:26.509Z,86.30
2018-07-12T07:24:31.320Z,90.50
2018-07-12T07:29:36.352Z,89.70
2018-07-12T07:34:41.315Z,90.60
2018-07-12T07:39:46.241Z,92.20
2018-07-12T07:44:51.010Z,92.30
2018-07-12T07:49:56.177Z,92.80
2018-07-12T07:55:01.502Z,92.90
2018-07-12T08:00:06.262Z,92.80
2018-07-12T08:05:11.302Z,91.60
2018-07-12T08:10:16.152Z,90.50
2018-07-12T08:20:25.580Z,90.90
2018-07-12T08:25:30.948Z,90.70
2018-07-12T08:30:36.210Z,90.60
2018-07-12T08:35:40.987Z,90.30
2018-07-12T08:40:45.848Z,90.30
2018-07-12T08:45:51.842Z,89.20
2018-07-12T08:50:56.367Z,89.20
2018-07-12T08:56:02.532Z,88.70
2018-07-12T09:01:07.143Z,87.90
2018-07-12T09:06:11.800Z,85.40
2018-07-12T09:11:16.589Z,84.10
2018-07-12T09:16:21.286Z,84.00
2018-07-12T09:21:26.003Z,84.10
2018-07-12T09:26:30.644Z,83.70
2018-07-12T09:31:35.281Z,82.70
2018-07-12T09:36:40.743Z,82.50
2018-07-12T09:41:45.958Z,82.30
2018-07-12T09:46:50.942Z,78.50
2018-07-12T09:51:55.763Z,80.30
2018-07-12T09:58:15.372Z,80.90
2018-07-12T10:03:21.629Z,79.10
2018-07-12T10:08:32.024Z,78.60
2018-07-12T10:13:42.093Z,77.80
2018-07-12T10:18:47.447Z,77.70
2018-07-12T10:23:52.222Z,77.30
2018-07-12T10:28:57.157Z,77.30
2018-07-12T10:39:08.260Z,73.30
2018-07-12T10:44:13.089Z,74.90
2018-07-12T10:49:18.003Z,72.00
2018-07-12T10:54:22.805Z,73.20
2018-07-12T10:59:27.561Z,71.80
2018-07-12T11:04:32.518Z,72.50
2018-07-12T11:09:37.404Z,69.60
2018-07-12T11:14:44.135Z,69.00
2018-07-12T11:19:48.735Z,70.40
2018-07-12T11:24:53.541Z,72.50
2018-07-12T11:30:00.244Z,71.70
2018-07-12T11:35:06.139Z,72.80
2018-07-12T11:40:10.884Z,72.70
2018-07-12T11:45:15.877Z,71.80
2018-07-12T11:50:20.315Z,72.40
2018-07-12T11:55:25.497Z,71.50
2018-07-12T12:00:30.369Z,68.70
2018-07-12T12:05:35.089Z,67.60
2018-07-12T12:10:39.642Z,68.50
2018-07-12T12:15:44.687Z,68.00
2018-07-12T12:20:49.426Z,66.20
2018-07-12T12:25:54.051Z,65.40
2018-07-12T12:30:58.909Z,65.40
2018-07-12T12:36:03.864Z,64.90
2018-07-12T12:41:08.657Z,63.60
2018-07-12T12:46:13.336Z,63.40
2018-07-12T12:56:22.558Z,60.30
2018-07-12T13:01:27.280Z,59.80
2018-07-12T13:06:31.992Z,60.50
2018-07-12T13:11:36.840Z,61.70
2018-07-12T13:16:41.491Z,60.50
2018-07-12T13:21:46.202Z,59.60
2018-07-12T13:26:51.013Z,61.20
2018-07-12T13:31:55.722Z,60.40
2018-07-12T13:42:04.673Z,61.10
2018-07-12T13:47:09.532Z,59.70
2018-07-12T13:52:15.032Z,59.50
2018-07-12T13:57:19.615Z,59.20
2018-07-12T14:02:24.577Z,59.00
2018-07-12T14:07:29.431Z,59.30
2018-07-12T14:12:34.646Z,58.40
2018-07-12T14:17:39.874Z,59.40
2018-07-12T14:22:44.734Z,59.30
2018-07-12T14:27:49.370Z,59.30
2018-07-12T14:32:55.044Z,59.90
2018-07-12T14:37:59.714Z,60.60
2018-07-12T14:43:04.644Z,59.10
2018-07-12T14:48:09.926Z,59.60
2018-07-12T14:53:14.607Z,59.50
2018-07-12T14:58:19.415Z,61.90
2018-07-12T15:03:24.464Z,60.70
2018-07-12T15:08:29.284Z,60.70
2018-07-12T15:13:34.100Z,60.10
2018-07-12T15:18:38.847Z,61.30
2018-07-12T15:23:43.814Z,60.90
2018-07-12T15:28:48.663Z,61.80
2018-07-12T15:33:53.306Z,60.10
2018-07-12T15:38:58.019Z,61.80
2018-07-12T15:44:03.199Z,59.70
2018-07-12T15:49:08.114Z,61.30
2018-07-12T15:54:13.147Z,61.10
2018-07-12T15:59:17.892Z,62.00
2018-07-12T16:04:22.598Z,61.10
2018-07-12T16:09:27.323Z,61.00
2018-07-12T16:14:32.488Z,61.40
2018-07-12T16:19:37.348Z,61.10
2018-07-12T16:24:42.032Z,60.30
2018-07-12T16:29:46.699Z,60.20
2018-07-12T16:34:51.659Z,59.40
2018-07-12T16:39:56.424Z,60.10
2018-07-12T16:45:01.254Z,60.30
2018-07-12T16:50:06.095Z,61.20
2018-07-12T16:55:11.016Z,63.80
2018-07-12T17:00:19.235Z,65.80
2018-07-12T17:05:24.494Z,67.10
2018-07-12T17:10:29.554Z,69.10
2018-07-12T17:15:35.115Z,68.60
2018-07-12T17:20:39.884Z,69.20
2018-07-12T17:25:44.782Z,68.60
2018-07-12T17:30:49.717Z,69.60
2018-07-12T17:35:54.639Z,71.40
2018-07-12T17:40:59.295Z,72.50
2018-07-12T17:46:04.211Z,72.70
2018-07-12T18:01:17.605Z,72.60
2018-07-12T18:06:22.562Z,72.90
2018-07-12T18:11:30.057Z,72.90
2018-07-12T18:16:35.115Z,73.60
2018-07-12T18:21:40.471Z,74.60
2018-07-12T18:26:45.717Z,74.80
2018-07-12T18:31:51.045Z,76.80
2018-07-12T18:36:56.205Z,77.30
2018-07-12T18:42:01.086Z,78.20
2018-07-12T18:47:06.453Z,78.40
2018-07-12T18:52:12.035Z,78.20
2018-07-12T18:57:17.779Z,77.50
2018-07-12T19:02:22.609Z,77.40
2018-07-12T19:07:27.478Z,77.90
2018-07-12T19:12:33.122Z,78.70
2018-07-12T19:17:37.960Z,80.90
2018-07-12T19:22:42.842Z,81.60
2018-07-12T19:27:47.727Z,81.00
2018-07-12T19:32:52.591Z,81.90
2018-07-12T19:43:02.160Z,83.60
2018-07-12T19:48:07.439Z,83.90
2018-07-12T19:53:12.308Z,83.80
2018-07-12T19:58:17.211Z,83.90
2018-07-12T20:08:26.783Z,83.00
2018-07-12T20:13:31.496Z,83.20
2018-07-12T20:18:36.051Z,83.50
2018-07-12T20:23:40.619Z,84.10
2018-07-12T20:28:45.528Z,84.90
2018-07-12T20:33:50.658Z,85.70
2018-07-12T20:38:55.445Z,86.00
2018-07-12T20:44:00.260Z,86.60
2018-07-12T20:54:11.156Z,87.20
2018-07-12T20:59:16.508Z,87.30
2018-07-12T21:09:27.214Z,87.70
2018-07-12T21:19:37.019Z,87.10
2018-07-12T21:24:42.175Z,86.60
2018-07-12T21:29:46.982Z,86.70
2018-07-12T21:34:51.717Z,87.70
2018-07-12T21:39:58.085Z,88.20
2018-07-12T21:45:02.703Z,89.20
2018-07-12T21:50:07.643Z,89.10
2018-07-12T21:55:12.641Z,88.40
2018-07-12T22:00:17.353Z,88.90
2018-07-12T22:05:22.066Z,89.60
2018-07-12T22:10:28.090Z,89.60
2018-07-12T22:15:33.366Z,90.30
2018-07-12T22:20:38.110Z,90.70
2018-07-12T22:25:42.960Z,90.80
2018-07-12T22:30:47.927Z,91.00
2018-07-12T22:35:54.126Z,91.50
2018-07-12T22:40:59.094Z,91.40
2018-07-12T22:46:03.848Z,91.60
2018-07-12T22:51:08.652Z,91.80
2018-07-12T22:56:13.310Z,93.10
2018-07-12T23:01:18.108Z,92.70
2018-07-12T23:06:22.951Z,92.60
2018-07-12T23:11:28.923Z,92.20
2018-07-12T23:16:33.799Z,92.10
2018-07-12T23:21:38.589Z,92.70
2018-07-12T23:26:43.349Z,94.70
2018-07-12T23:36:52.346Z,95.00
2018-07-12T23:41:57.114Z,95.20
2018-07-12T23:47:02.457Z,94.80
2018-07-12T23:52:07.379Z,94.80
2018-07-12T23:57:11.958Z,93.90
